Latest Weather Observations for Cape Jaffa

IDS60801

Issued at 7:02 pm CDT Sunday 29 March 2020 (issued every 10 minutes, with the page automatically refreshed every 10 minutes)

About weather observations | Map of weather stations | Latest weather observations for SA | Other Formats
Station Details ID: 026095 Name: THE LIMESTONE Lat: -36.97 Lon: 139.72 Height: 17.0 m
Data from the previous 72 hours. | See also: Recent months at Cape Jaffa
Date/Time
CDT
Temp
°C
App
Temp
°C
Dew
Point
°C
Rel
Hum
%
Delta-T
°C
Wind Press
QNH
hPa
Press
MSL
hPa
Rain since
9am
mm
Dir  Spd
km/h
Gust
km/h
Spd
kts
Gust
kts
29/07:00pm 16.2 14.5 13.5 84 1.5 WNW 15 20 8 11 1011.1 1011.0 0.0
29/06:30pm 17.3 15.6 13.6 79 2.1 NW 15 19 8 10 1010.7 1010.6 0.0
29/06:00pm 18.3 16.0 14.0 76 2.5 WNW 19 28 10 15 1010.4 1010.3 0.0
29/05:30pm 19.1 16.5 13.9 72 3.0 WNW 20 26 11 14 1009.9 1009.8 0.0
29/05:00pm 19.3 16.0 14.1 72 3.0 WNW 24 35 13 19 1009.8 1009.7 0.0
29/04:30pm 19.5 15.4 13.9 70 3.2 WNW 28 35 15 19 1009.7 1009.6 0.0
29/04:00pm 19.9 15.5 14.0 69 3.4 WNW 30 39 16 21 1009.6 1009.5 0.0
29/03:30pm 19.9 16.3 14.3 70 3.3 WNW 26 37 14 20 1009.4 1009.3 0.0
29/03:00pm 20.2 17.1 14.6 70 3.3 WNW 24 33 13 18 1009.4 1009.3 0.0
29/02:30pm 20.2 17.1 14.6 70 3.3 WNW 24 33 13 18 1009.3 1009.2 0.0
29/02:00pm 20.3 18.2 15.3 73 3.0 NW 20 33 11 18 1009.5 1009.4 0.0
29/01:30pm 20.2 16.9 15.0 72 3.1 WNW 26 33 14 18 1009.5 1009.4 0.0
29/01:00pm 20.6 17.2 14.7 69 3.5 WNW 26 33 14 18 1009.4 1009.3 0.0
29/12:30pm 20.2 16.9 15.0 72 3.1 WNW 26 37 14 20 1009.5 1009.4 0.0
29/12:00pm 19.5 16.5 14.7 74 2.8 WNW 24 32 13 17 1009.7 1009.6 0.0
29/11:30am 18.7 16.0 14.6 77 2.4 WNW 22 32 12 17 1009.6 1009.5 0.0
29/11:00am 19.5 17.5 15.4 77 2.4 WNW 20 28 11 15 1009.3 1009.2 0.0
29/10:30am 19.1 17.0 14.8 76 2.5 NW 19 24 10 13 1009.0 1008.9 0.0
29/10:00am 19.5 16.4 13.4 68 3.5 NW 22 28 12 15 1008.9 1008.8 0.0
29/09:38am 19.4 13.6 10.9 58 4.6 NNW 32 43 17 23 1008.8 1008.7 0.0
29/09:30am 19.6 12.9 10.9 57 4.7 N 37 46 20 25 1008.4 1008.3 0.0
29/09:00am 19.8 13.2 10.0 53 5.3 N 35 44 19 24 1007.8 1007.7 0.0
29/08:30am 19.7 13.4 9.6 52 5.4 N 33 43 18 23 1007.5 1007.4 0.0
29/08:00am 21.3 12.9 7.5 41 7.1 N 41 54 22 29 1007.6 1007.5 0.0
29/07:30am 21.6 13.7 7.8 41 7.2 N 39 52 21 28 1006.6 1006.5 0.0
29/07:00am 21.9 14.5 8.4 42 7.1 N 37 50 20 27 1006.5 1006.4 0.0
29/06:40am 21.0 15.2 9.6 48 6.1 NNE 30 57 16 31 1006.3 1006.2 0.0
29/06:30am 21.1 15.8 10.0 49 6.0 NNE 28 35 15 19 1006.3 1006.2 0.0
29/06:00am 21.4 15.8 8.7 44 6.7 NNE 28 37 15 20 1005.2 1005.1 0.0
29/05:30am 21.4 15.5 9.0 45 6.6 NNE 30 39 16 21 1005.3 1005.2 0.0
29/05:00am 21.2 16.4 8.8 45 6.6 NNE 24 33 13 18 1006.0 1005.9 0.0
29/04:30am 21.1 16.2 8.4 44 6.7 NNE 24 32 13 17 1006.1 1006.0 0.0
29/04:00am 21.2 15.7 7.4 41 7.1 NNE 26 35 14 19 1005.8 1005.7 0.0
29/03:30am 21.6 15.5 6.7 38 7.6 NNE 28 35 15 19 1005.9 1005.8 0.0
29/03:00am 21.3 16.1 5.6 36 7.8 NE 22 28 12 15 1006.3 1006.2 0.0
29/02:30am 19.8 15.1 5.1 38 7.2 NE 19 20 10 11 1006.9 1006.8 0.0
29/02:00am 18.8 14.0 4.9 40 6.7 NE 19 20 10 11 1007.2 1007.1 0.0
29/01:30am 18.7 14.5 5.5 42 6.5 NE 17 20 9 11 1007.7 1007.6 0.0
29/01:00am 19.6 15.7 5.3 39 7.0 ENE 15 17 8 9 1007.9 1007.8 0.0
29/12:30am 20.2 15.4 4.7 36 7.5 ENE 19 22 10 12 1008.2 1008.1 0.0
29/12:00am 18.9 15.5 5.7 42 6.5 ENE 13 17 7 9 1009.0 1008.9 0.0
 
Date/Time
CDT
Temp
°C
App
Temp
°C
Dew
Point
°C
Rel
Hum
%
Delta-T
°C
Wind Press
QNH
hPa
Press
MSL
hPa
Rain since
9am
mm
Dir  Spd
km/h
Gust
km/h
Spd
kts
Gust
kts
28/11:30pm 18.7 15.0 6.2 44 6.2 ENE 15 17 8 9 1009.2 1009.1 0.0
28/11:00pm 18.0 14.9 7.4 50 5.3 ENE 13 17 7 9 1009.5 1009.4 0.0
28/10:30pm 17.7 14.7 7.7 52 5.1 ENE 13 17 7 9 1010.2 1010.1 0.0
28/10:00pm 17.2 14.6 7.8 54 4.8 ENE 11 13 6 7 1010.6 1010.5 0.0
28/09:30pm 17.4 14.8 7.7 53 4.9 ENE 11 13 6 7 1011.1 1011.0 0.0
28/09:00pm 18.2 15.5 7.3 49 5.5 ENE 11 11 6 6 1011.2 1011.1 0.0
28/08:30pm 19.1 17.8 7.8 48 5.8 E 4 9 2 5 1011.2 1011.1 0.0
28/08:00pm 20.9 20.1 8.2 44 6.6 SW 2 4 1 2 1011.2 1011.1 0.0
28/07:30pm 20.1 19.5 8.8 48 5.9 SE 2 4 1 2 1011.3 1011.2 0.0
28/07:00pm 21.0 19.4 8.9 46 6.4 W 7 9 4 5 1011.3 1011.2 0.0
28/06:30pm 23.3 21.3 7.0 35 8.4 W 7 13 4 7 1011.4 1011.3 0.0
28/06:00pm 25.7 23.0 7.3 31 9.7 WNW 11 19 6 10 1011.5 1011.4 0.0
28/05:30pm 26.6 23.2 7.6 30 10.1 WNW 15 19 8 10 1011.7 1011.6 0.0
28/05:00pm 27.3 23.0 7.2 28 10.7 NW 19 28 10 15 1012.1 1012.0 0.0
28/04:30pm 28.5 23.5 4.7 22 12.2 NNW 20 28 11 15 1012.3 1012.2 0.0
28/04:00pm 28.0 23.4 5.6 24 11.6 NNW 19 24 10 13 1012.5 1012.4 0.0
28/03:30pm 26.8 20.8 5.1 25 11.1 NNW 26 32 14 17 1013.0 1012.9 0.0
28/03:00pm 27.4 21.1 5.6 25 11.3 N 28 35 15 19 1013.0 1012.9 0.0
28/02:30pm 26.7 20.5 6.2 27 10.7 N 28 37 15 20 1013.2 1013.1 0.0
28/02:00pm 26.7 19.7 6.2 27 10.7 N 32 37 17 20 1013.6 1013.5 0.0
28/01:30pm 27.6 20.6 5.8 25 11.3 N 32 39 17 21 1014.0 1013.9 0.0
28/01:00pm 27.4 21.1 7.3 28 10.7 N 30 37 16 20 1014.5 1014.4 0.0
28/12:30pm 26.5 20.3 8.0 31 9.9 N 30 37 16 20 1014.7 1014.6 0.0
28/12:00pm 24.8 18.6 7.9 34 9.0 N 30 37 16 20 1015.2 1015.1 0.0
28/11:30am 25.4 19.9 7.5 32 9.5 N 26 33 14 18 1015.5 1015.4 0.0
28/11:00am 23.3 18.6 9.3 41 7.6 N 24 33 13 18 1015.8 1015.7 0.0
28/10:30am 21.9 16.9 9.4 45 6.7 NNE 26 32 14 17 1015.9 1015.8 0.0
28/10:00am 20.5 16.3 9.7 50 5.8 NNE 22 28 12 15 1016.1 1016.0 0.0
28/09:30am 19.0 16.0 10.8 59 4.4 NNE 17 22 9 12 1016.4 1016.3 0.0
28/09:00am 17.1 15.5 11.6 70 3.0 NNE 11 17 6 9 1016.5 1016.4 0.0
28/08:30am 13.8 12.3 9.0 73 2.4 NE 7 9 4 5 1016.7 1016.6 0.0
28/08:00am 12.1 9.9 7.8 75 2.1 ENE 9 13 5 7 1016.5 1016.4 0.0
28/07:30am 11.3 8.2 7.2 76 2.0 ENE 13 15 7 8 1016.3 1016.2 0.0
28/07:00am 11.7 8.7 7.6 76 2.0 ENE 13 15 7 8 1016.1 1016.0 0.0
28/06:30am 11.8 8.3 7.3 74 2.2 ENE 15 17 8 9 1015.9 1015.8 0.0
28/06:00am 12.1 9.0 7.4 73 2.3 ENE 13 15 7 8 1016.1 1016.0 0.0
28/05:30am 13.0 9.6 7.7 70 2.6 E 15 17 8 9 1016.2 1016.1 0.0
28/05:00am 12.8 9.8 7.5 70 2.6 E 13 15 7 8 1016.2 1016.1 0.0
28/04:30am 13.2 9.8 7.6 69 2.7 E 15 15 8 8 1016.4 1016.3 0.0
28/04:00am 12.3 9.9 6.8 69 2.6 E 9 11 5 6 1016.4 1016.3 0.0
28/03:30am 13.4 10.2 7.0 65 3.1 E 13 15 7 8 1016.6 1016.5 0.0
28/03:00am 13.7 11.0 7.2 65 3.2 E 11 13 6 7 1016.9 1016.8 0.0
28/02:30am 15.0 12.3 7.3 60 3.8 ESE 11 13 6 7 1017.3 1017.2 0.0
28/02:00am 15.6 12.9 7.4 58 4.1 SE 11 13 6 7 1017.6 1017.5 0.0
28/01:30am 15.5 12.4 7.3 58 4.0 ESE 13 15 7 8 1017.9 1017.8 0.0
28/01:00am 16.2 13.4 6.9 54 4.6 SE 11 13 6 7 1018.1 1018.0 0.0
28/12:30am 16.4 13.8 7.6 56 4.4 SE 11 13 6 7 1018.4 1018.3 0.0
28/12:00am 16.4 13.9 8.4 59 4.1 SSE 11 13 6 7 1018.7 1018.6 0.0
 
Date/Time
CDT
Temp
°C
App
Temp
°C
Dew
Point
°C
Rel
Hum
%
Delta-T
°C
Wind Press
QNH
hPa
Press
MSL
hPa
Rain since
9am
mm
Dir  Spd
km/h
Gust
km/h
Spd
kts
Gust
kts
27/11:30pm 17.4 14.9 8.0 54 4.8 SE 11 13 6 7 1018.9 1018.8 0.0
27/11:00pm 16.7 14.6 8.1 57 4.4 SE 9 11 5 6 1019.2 1019.1 0.0
27/10:30pm 16.9 15.2 8.3 57 4.4 SE 7 11 4 6 1019.3 1019.2 0.0
27/10:00pm 16.8 14.8 8.5 58 4.2 SSE 9 13 5 7 1019.3 1019.2 0.0
27/09:30pm 16.4 14.2 7.9 57 4.3 SSE 9 11 5 6 1019.4 1019.3 0.0
27/09:00pm 16.4 13.5 8.1 58 4.2 SE 13 17 7 9 1019.3 1019.2 0.0
27/08:30pm 16.9 14.0 9.6 62 3.8 SSE 15 19 8 10 1019.3 1019.2 0.0
27/08:00pm 16.0 14.2 11.0 72 2.7 S 11 17 6 9 1019.4 1019.3 0.0
27/07:30pm 16.2 14.3 10.5 69 3.0 S 11 15 6 8 1019.3 1019.2 0.0
27/07:00pm 17.0 14.5 9.7 62 3.8 S 13 15 7 8 1019.2 1019.1 0.0
27/06:30pm 18.5 14.8 9.6 56 4.7 S 19 22 10 12 1019.2 1019.1 0.0
27/06:00pm 18.5 14.3 9.8 57 4.6 S 22 28 12 15 1019.1 1019.0 0.0
27/05:30pm 19.0 14.8 9.8 55 4.9 SSW 22 28 12 15 1019.3 1019.2 0.0
27/05:00pm 19.6 15.2 8.9 50 5.6 SSW 22 28 12 15 1019.6 1019.5 0.0
27/04:30pm 19.5 15.4 10.2 55 5.0 SSW 22 28 12 15 1019.7 1019.6 0.0
27/04:00pm 19.0 15.5 10.8 59 4.4 SSW 20 24 11 13 1020.0 1019.9 0.0
27/03:30pm 18.1 14.7 10.5 61 4.1 SW 19 22 10 12 1020.5 1020.4 0.0
27/03:00pm 19.9 17.0 10.9 56 4.9 SW 17 20 9 11 1020.8 1020.7 0.0
27/02:30pm 19.4 17.2 10.7 57 4.7 SW 13 17 7 9 1020.9 1020.8 0.0
27/02:00pm 19.8 18.0 11.0 57 4.8 SW 11 15 6 8 1021.3 1021.2 0.0
27/01:30pm 19.1 17.2 10.6 58 4.6 SW 11 17 6 9 1021.7 1021.6 0.0
27/01:00pm 19.5 17.8 11.3 59 4.5 SW 11 17 6 9 1022.2 1022.1 0.0
27/12:30pm 20.1 18.5 11.6 58 4.7 WSW 11 19 6 10 1022.5 1022.4 0.0
27/12:00pm 22.1 21.0 10.6 48 6.3 NNW 7 15 4 8 1022.6 1022.5 0.0
27/11:30am 21.4 19.4 10.3 49 6.0 NNE 11 17 6 9 1022.9 1022.8 0.0
27/11:00am 20.6 19.1 10.7 53 5.4 NE 9 17 5 9 1023.1 1023.0 0.0
27/10:30am 19.0 18.4 11.6 62 4.1 NNE 6 11 3 6 1023.4 1023.3 0.0
27/10:00am 16.8 16.2 11.7 72 2.8 ENE 6 9 3 5 1023.8 1023.8 0.0
27/09:30am 14.4 13.6 11.0 80 1.8 E 6 7 3 4 1023.7 1023.6 0.0
27/09:00am 11.6 10.8 9.7 88 1.0 ESE 4 4 2 2 1023.7 1023.6 0.0
27/08:30am 9.8 8.2 8.2 90 0.8 SE 6 9 3 5 1023.5 1023.4 0.0
27/08:00am 9.3 7.7 7.9 91 0.7 ESE 6 7 3 4 1023.3 1023.2 0.0
27/07:30am 8.1 5.2 6.7 91 0.6 ESE 11 13 6 7 1023.1 1023.0 0.0
27/07:00am 8.0 4.7 6.6 91 0.6 ESE 13 15 7 8 1022.8 1022.7 0.0
27/06:30am 8.1 5.6 6.6 90 0.7 SE 9 13 5 7 1022.7 1022.6 0.0
27/06:00am 8.6 6.6 6.9 89 0.8 SE 7 9 4 5 1022.8 1022.7 0.0
27/05:30am 9.3 6.7 7.6 89 0.8 SSE 11 13 6 7 1022.6 1022.5 0.0
27/05:00am 8.9 7.1 7.0 88 0.9 S 6 9 3 5 1022.5 1022.4 0.0
27/04:30am 9.6 7.0 7.7 88 0.9 ESE 11 15 6 8 1022.4 1022.3 0.0
27/04:00am 9.6 7.0 7.7 88 0.9 ESE 11 13 6 7 1022.3 1022.2 0.0
27/03:30am 9.8 7.2 7.7 87 1.0 ESE 11 15 6 8 1022.6 1022.5 0.0
27/03:00am 10.2 7.7 8.1 87 1.0 SE 11 15 6 8 1022.9 1022.8 0.0
27/02:30am 10.3 7.4 8.1 86 1.1 SE 13 17 7 9 1023.2 1023.1 0.0
27/02:00am 10.6 7.4 8.4 86 1.1 SE 15 20 8 11 1023.3 1023.2 0.0
27/01:30am 10.6 7.7 8.2 85 1.2 SE 13 19 7 10 1023.3 1023.2 0.0
27/01:00am 10.9 8.0 8.3 84 1.3 SE 13 17 7 9 1023.4 1023.3 0.0
27/12:30am 11.2 9.1 8.4 83 1.4 SE 9 17 5 9 1023.5 1023.4 0.0
27/12:00am 11.8 8.3 8.8 82 1.5 SE 17 24 9 13 1023.4 1023.3 0.0
 
Date/Time
CDT
Temp
°C
App
Temp
°C
Dew
Point
°C
Rel
Hum
%
Delta-T
°C
Wind Press
QNH
hPa
Press
MSL
hPa
Rain since
9am
mm
Dir  Spd
km/h
Gust
km/h
Spd
kts
Gust
kts
26/11:30pm 12.0 8.5 8.8 81 1.6 SE 17 26 9 14 1023.6 1023.5 0.0
26/11:00pm 12.2 9.1 9.0 81 1.6 SE 15 22 8 12 1024.0 1024.0 0.0
26/10:30pm 12.3 9.2 9.0 80 1.6 SSE 15 20 8 11 1024.2 1024.2 0.0
26/10:00pm 12.7 9.7 9.3 80 1.7 SSE 15 22 8 12 1024.3 1024.3 0.0
26/09:30pm 13.0 9.6 9.3 78 1.9 SSE 17 24 9 13 1024.3 1024.3 0.0
26/09:00pm 13.7 9.5 9.6 76 2.1 SSE 22 37 12 20 1024.3 1024.3 0.0
26/08:30pm 13.8 9.2 9.6 76 2.1 SSE 24 33 13 18 1024.3 1024.3 0.0
26/08:00pm 14.3 9.1 10.1 76 2.2 SSE 28 37 15 20 1024.1 1024.1 0.0
26/07:30pm 14.5 8.9 10.1 75 2.3 S 30 37 16 20 1024.1 1024.1 0.0

Other formats

Comma delimited format used in spreadsheet applications
http://www.bom.gov.au/fwo/IDS60801/IDS60801.94813.axf

JavaScript Object Notation format (JSON) in row-major order
http://www.bom.gov.au/fwo/IDS60801/IDS60801.94813.json

Data quality

Most of these data are generated automatically and are frequently updated. Quality checks on data are not normally performed. It is possible for incorrect values to appear. Refer to information at About Latest Weather Observations and please check the disclaimer before using these data.